createdAt,value
2018-09-02T00:00:33.912Z,6.93
2018-09-02T00:03:04.445Z,5.97
2018-09-02T00:05:33.654Z,5.73
2018-09-02T00:08:02.768Z,5.23
2018-09-02T00:10:34.029Z,5.17
2018-09-02T00:13:05.026Z,5.07
2018-09-02T00:15:34.479Z,5.13
2018-09-02T00:18:04.252Z,5.23
2018-09-02T00:20:33.993Z,5.17
2018-09-02T00:23:03.079Z,5.83
2018-09-02T00:25:32.395Z,5.60
2018-09-02T00:28:02.821Z,5.60
2018-09-02T00:30:31.798Z,4.40
2018-09-02T00:33:00.760Z,5.73
2018-09-02T00:35:29.776Z,5.57
2018-09-02T00:37:59.182Z,5.20
2018-09-02T00:40:28.130Z,4.73
2018-09-02T00:42:57.072Z,5.43
2018-09-02T00:45:26.142Z,6.00
2018-09-02T00:47:55.095Z,5.20
2018-09-02T00:50:24.028Z,5.67
2018-09-02T00:52:53.089Z,5.70
2018-09-02T00:55:22.185Z,5.43
2018-09-02T00:57:59.920Z,6.40
2018-09-02T01:00:28.895Z,6.37
2018-09-02T01:02:57.860Z,6.13
2018-09-02T01:05:27.195Z,6.03
2018-09-02T01:07:57.702Z,6.13
2018-09-02T01:10:28.762Z,5.93
2018-09-02T01:12:58.544Z,6.97
2018-09-02T01:15:28.547Z,5.73
2018-09-02T01:17:58.271Z,5.90
2018-09-02T01:20:28.789Z,5.60
2018-09-02T01:25:51.137Z,6.47
2018-09-02T01:28:20.081Z,5.10
2018-09-02T01:30:49.016Z,5.70
2018-09-02T01:33:18.019Z,5.13
2018-09-02T01:35:47.191Z,6.03
2018-09-02T01:38:25.719Z,5.03
2018-09-02T01:40:56.347Z,5.27
2018-09-02T01:43:27.067Z,5.10
2018-09-02T01:45:56.173Z,5.70
2018-09-02T01:48:25.148Z,5.50
2018-09-02T01:50:54.096Z,5.80
2018-09-02T01:53:23.111Z,6.30
2018-09-02T01:55:52.173Z,6.03
2018-09-02T01:58:21.172Z,5.70
2018-09-02T02:00:53.538Z,5.13
2018-09-02T02:20:22.143Z,5.97
2018-09-02T02:22:51.183Z,5.93
2018-09-02T02:25:20.121Z,5.63
2018-09-02T02:27:49.088Z,6.03
2018-09-02T02:30:18.359Z,5.60
2018-09-02T02:32:47.618Z,6.80
2018-09-02T02:35:19.487Z,6.00
2018-09-02T02:37:48.611Z,6.73
2018-09-02T02:40:19.779Z,6.80
2018-09-02T02:42:48.885Z,7.03
2018-09-02T02:45:20.138Z,6.23
2018-09-02T02:47:52.131Z,6.57
2018-09-02T02:50:21.081Z,8.23
2018-09-02T02:52:55.015Z,6.80
2018-09-02T02:55:24.839Z,7.70
2018-09-02T02:58:04.491Z,6.53
2018-09-02T03:00:34.447Z,6.67
2018-09-02T03:03:05.373Z,7.37
2018-09-02T03:05:34.955Z,7.20
2018-09-02T03:08:11.383Z,6.80
2018-09-02T03:10:42.600Z,7.30
2018-09-02T03:13:13.534Z,7.37
2018-09-02T03:15:47.938Z,7.10
2018-09-02T03:18:17.054Z,7.23
2018-09-02T03:20:46.992Z,6.53
2018-09-02T03:23:17.089Z,6.47
2018-09-02T03:25:46.296Z,7.37
2018-09-02T03:28:15.285Z,6.50
2018-09-02T03:30:44.353Z,6.37
2018-09-02T03:33:13.299Z,6.00
2018-09-02T03:35:46.364Z,6.70
2018-09-02T03:38:15.336Z,6.93
2018-09-02T03:40:44.427Z,6.43
2018-09-02T03:43:13.412Z,6.97
2018-09-02T03:45:42.556Z,6.30
2018-09-02T03:48:11.559Z,6.90
2018-09-02T03:50:41.172Z,7.30
2018-09-02T03:53:10.345Z,6.67
2018-09-02T03:55:39.711Z,7.30
2018-09-02T03:58:08.686Z,7.30
2018-09-02T04:00:37.744Z,7.23
2018-09-02T04:16:59.699Z,8.20
2018-09-02T04:19:28.602Z,7.20
2018-09-02T04:21:57.478Z,7.53
2018-09-02T04:24:26.493Z,8.37
2018-09-02T04:26:55.764Z,8.20
2018-09-02T04:29:24.699Z,8.77
2018-09-02T04:31:53.629Z,8.77
2018-09-02T04:34:29.341Z,9.23
2018-09-02T04:36:58.394Z,9.07
2018-09-02T04:39:27.339Z,8.83
2018-09-02T04:41:56.391Z,9.23
2018-09-02T04:44:25.450Z,6.37
2018-09-02T04:46:55.067Z,7.53
2018-09-02T04:49:25.070Z,7.43
2018-09-02T04:51:54.112Z,6.87
2018-09-02T04:54:23.169Z,7.37
2018-09-02T04:56:52.083Z,7.23
2018-09-02T04:59:21.139Z,7.67
2018-09-02T05:01:50.160Z,7.27
2018-09-02T05:04:19.086Z,6.83
2018-09-02T05:06:49.162Z,7.50
2018-09-02T05:09:18.540Z,7.30
2018-09-02T05:11:47.664Z,6.73
2018-09-02T05:14:16.713Z,6.87
2018-09-02T05:16:48.160Z,7.03
2018-09-02T05:19:17.147Z,6.23
2018-09-02T05:21:46.247Z,6.13
2018-09-02T05:24:15.463Z,6.13
2018-09-02T05:26:44.423Z,6.03
2018-09-02T05:29:13.407Z,5.43
2018-09-02T05:31:42.363Z,5.27
2018-09-02T05:34:11.363Z,5.60
2018-09-02T05:36:40.408Z,6.20
2018-09-02T05:39:10.803Z,5.43
2018-09-02T05:41:40.082Z,5.70
2018-09-02T05:44:10.160Z,4.90
2018-09-02T05:46:39.726Z,5.67
2018-09-02T05:49:08.998Z,5.90
2018-09-02T05:51:37.949Z,5.10
2018-09-02T05:54:06.488Z,5.37
2018-09-02T05:56:35.513Z,5.83
2018-09-02T05:59:04.531Z,5.17
2018-09-02T06:01:33.538Z,6.30
2018-09-02T06:04:02.655Z,5.37
2018-09-02T06:06:31.691Z,5.87
2018-09-02T06:09:00.749Z,5.33
2018-09-02T06:11:29.757Z,5.43
2018-09-02T06:13:58.702Z,5.67
2018-09-02T06:16:28.800Z,5.50
2018-09-02T06:18:57.836Z,5.33
2018-09-02T06:21:27.031Z,4.87
2018-09-02T06:23:57.512Z,5.77
2018-09-02T06:26:26.582Z,5.37
2018-09-02T06:28:55.651Z,5.30
2018-09-02T06:31:24.963Z,4.80
2018-09-02T06:33:54.057Z,5.27
2018-09-02T06:36:24.743Z,5.00
2018-09-02T06:38:53.698Z,5.50
2018-09-02T06:41:22.678Z,5.20
2018-09-02T06:43:51.639Z,6.37
2018-09-02T06:46:23.545Z,6.27
2018-09-02T06:48:53.082Z,5.57
2018-09-02T06:51:22.021Z,5.30
2018-09-02T06:53:50.982Z,5.50
2018-09-02T06:56:19.942Z,5.53
2018-09-02T06:58:49.054Z,5.13
2018-09-02T07:01:19.275Z,5.70
2018-09-02T07:03:48.399Z,5.50
2018-09-02T07:06:17.406Z,5.30
2018-09-02T07:08:46.524Z,7.03
2018-09-02T07:11:15.523Z,6.83
2018-09-02T07:13:44.550Z,6.43
2018-09-02T07:16:13.577Z,6.73
2018-09-02T07:18:42.502Z,7.27
2018-09-02T07:21:11.537Z,6.90
2018-09-02T07:23:40.504Z,5.80
2018-09-02T07:26:10.182Z,5.33
2018-09-02T07:28:39.972Z,6.30
2018-09-02T07:31:22.443Z,7.03
2018-09-02T07:33:51.811Z,6.17
2018-09-02T07:36:20.980Z,5.73
2018-09-02T07:38:50.056Z,5.53
2018-09-02T07:41:19.263Z,7.93
2018-09-02T07:43:48.515Z,6.47
2018-09-02T07:46:17.561Z,8.03
2018-09-02T07:48:46.713Z,6.40
2018-09-02T07:51:16.946Z,5.33
2018-09-02T07:53:45.900Z,5.60
2018-09-02T07:56:15.205Z,5.20
2018-09-02T07:58:44.374Z,5.67
2018-09-02T08:01:13.365Z,4.50
2018-09-02T08:03:42.644Z,4.90
2018-09-02T08:06:11.669Z,5.00
2018-09-02T08:08:40.754Z,4.77
2018-09-02T08:11:09.788Z,4.87
2018-09-02T08:13:38.804Z,5.00
2018-09-02T08:16:08.977Z,4.50
2018-09-02T08:18:38.356Z,5.10
2018-09-02T08:21:09.600Z,4.87
2018-09-02T08:24:00.976Z,5.37
2018-09-02T08:26:29.901Z,4.30
2018-09-02T08:28:58.974Z,4.67
2018-09-02T08:31:30.538Z,4.60
2018-09-02T08:55:26.740Z,4.17
2018-09-02T08:57:55.749Z,3.50
2018-09-02T09:00:24.848Z,2.73
2018-09-02T09:02:54.478Z,3.73
2018-09-02T09:05:23.440Z,4.60
2018-09-02T09:07:52.668Z,4.60
2018-09-02T09:10:21.515Z,4.73
2018-09-02T09:12:50.411Z,3.90
2018-09-02T09:15:20.278Z,5.17
2018-09-02T09:17:49.216Z,4.10
2018-09-02T09:20:21.071Z,4.33
2018-09-02T09:22:50.101Z,4.17
2018-09-02T09:25:19.498Z,4.33
2018-09-02T09:27:48.491Z,4.53
2018-09-02T09:30:17.493Z,4.70
2018-09-02T09:32:46.401Z,4.27
2018-09-02T09:35:18.582Z,4.83
2018-09-02T09:37:47.844Z,4.27
2018-09-02T09:40:19.807Z,4.93
2018-09-02T09:42:48.749Z,3.93
2018-09-02T09:45:17.669Z,3.97
2018-09-02T09:47:46.629Z,3.80
2018-09-02T09:50:15.582Z,3.97
2018-09-02T09:53:00.019Z,3.50
2018-09-02T09:55:29.115Z,4.43
2018-09-02T09:57:58.491Z,4.10
2018-09-02T10:00:32.840Z,4.50
2018-09-02T10:03:03.309Z,3.90
2018-09-02T10:05:32.480Z,4.73
2018-09-02T10:08:01.581Z,4.67
2018-09-02T10:10:30.735Z,4.57
2018-09-02T10:12:59.934Z,3.90
2018-09-02T10:15:29.023Z,3.97
2018-09-02T10:17:58.305Z,3.70
2018-09-02T10:20:27.340Z,3.97
2018-09-02T10:22:56.706Z,4.13
2018-09-02T10:25:25.821Z,4.70
2018-09-02T10:27:55.012Z,4.53
2018-09-02T10:30:24.092Z,4.00
2018-09-02T10:32:53.108Z,3.90
2018-09-02T10:35:22.702Z,4.53
2018-09-02T10:37:52.844Z,4.73
2018-09-02T10:40:25.699Z,4.47
2018-09-02T10:42:54.633Z,4.03
2018-09-02T10:45:23.654Z,4.63
2018-09-02T10:47:53.589Z,4.10
2018-09-02T10:50:22.610Z,4.70
2018-09-02T10:52:53.274Z,4.13
2018-09-02T10:55:22.371Z,3.50
2018-09-02T10:57:52.002Z,4.30
2018-09-02T11:00:23.904Z,3.80
2018-09-02T11:02:52.813Z,4.10
2018-09-02T11:05:24.476Z,4.23
2018-09-02T11:07:53.572Z,3.83
2018-09-02T11:10:23.502Z,4.63
2018-09-02T11:12:52.451Z,5.40
2018-09-02T11:15:21.924Z,4.70
2018-09-02T11:17:51.618Z,4.20
2018-09-02T11:20:21.265Z,4.00
2018-09-02T11:22:50.692Z,4.20
2018-09-02T11:25:20.298Z,3.57
2018-09-02T11:27:49.792Z,4.77
2018-09-02T11:30:20.948Z,4.70
2018-09-02T11:32:50.687Z,4.80
2018-09-02T11:35:20.999Z,4.93
2018-09-02T11:37:50.439Z,5.40
2018-09-02T11:40:21.582Z,4.87
2018-09-02T11:42:51.175Z,5.53
2018-09-02T11:45:20.781Z,4.17
2018-09-02T11:47:50.462Z,5.03
2018-09-02T11:50:19.716Z,5.70
2018-09-02T11:52:49.096Z,5.70
2018-09-02T11:55:20.296Z,5.63
2018-09-02T11:57:50.090Z,5.37
2018-09-02T12:00:21.297Z,5.40
2018-09-02T12:02:51.045Z,5.93
2018-09-02T12:05:21.643Z,6.07
2018-09-02T12:07:51.544Z,6.83
2018-09-02T12:10:21.890Z,6.50
2018-09-02T12:12:51.081Z,6.87
2018-09-02T12:15:21.491Z,7.23
2018-09-02T12:17:51.431Z,7.17
2018-09-02T12:20:22.607Z,7.50
2018-09-02T12:22:52.397Z,6.27
2018-09-02T12:25:28.678Z,7.30
2018-09-02T12:27:57.863Z,6.53
2018-09-02T12:30:26.899Z,6.33
2018-09-02T12:32:56.103Z,6.80
2018-09-02T12:35:25.087Z,8.33
2018-09-02T12:37:54.427Z,8.77
2018-09-02T12:40:23.366Z,8.43
2018-09-02T12:42:53.367Z,8.03
2018-09-02T12:45:23.003Z,8.70
2018-09-02T12:47:52.102Z,7.87
2018-09-02T12:50:21.075Z,9.17
2018-09-02T12:52:50.121Z,8.33
2018-09-02T12:55:19.732Z,7.37
2018-09-02T12:57:48.729Z,7.73
2018-09-02T13:00:20.420Z,7.50
2018-09-02T13:02:49.428Z,6.90
2018-09-02T13:05:19.269Z,6.67
2018-09-02T13:07:48.396Z,6.13
2018-09-02T13:10:20.927Z,5.20
2018-09-02T13:12:50.775Z,5.60
2018-09-02T13:15:19.754Z,4.57
2018-09-02T13:17:48.792Z,5.63
2018-09-02T13:20:19.607Z,4.57
2018-09-02T13:22:48.646Z,4.27
2018-09-02T13:25:18.355Z,4.13
2018-09-02T13:27:47.285Z,4.07
2018-09-02T13:30:18.420Z,4.33
2018-09-02T13:32:48.351Z,3.23
2018-09-02T13:35:19.031Z,5.10
2018-09-02T13:37:47.957Z,6.07
2018-09-02T13:40:19.209Z,5.53
2018-09-02T13:42:48.452Z,5.30
2018-09-02T13:45:17.554Z,4.77
2018-09-02T13:47:46.544Z,5.73
2018-09-02T13:50:16.505Z,7.07
2018-09-02T13:52:46.617Z,7.33
2018-09-02T13:55:17.587Z,7.07
2018-09-02T13:57:48.235Z,5.90
2018-09-02T14:00:20.651Z,5.93
2018-09-02T14:02:49.601Z,5.57
2018-09-02T14:05:21.879Z,6.40
2018-09-02T14:07:52.544Z,6.40
2018-09-02T14:10:23.261Z,5.40
2018-09-02T14:12:52.327Z,5.43
2018-09-02T14:15:23.153Z,5.33
2018-09-02T14:17:52.254Z,4.67
2018-09-02T14:20:24.692Z,4.10
2018-09-02T14:22:57.088Z,4.47
2018-09-02T14:25:27.947Z,4.63
2018-09-02T14:27:59.410Z,4.30
2018-09-02T14:30:28.620Z,4.17
2018-09-02T14:32:58.010Z,4.23
2018-09-02T14:35:33.930Z,4.43
2018-09-02T14:38:03.523Z,3.53
2018-09-02T14:40:35.092Z,4.07
2018-09-02T14:43:04.484Z,3.93
2018-09-02T14:45:34.990Z,3.30
2018-09-02T14:48:04.291Z,4.03
2018-09-02T14:50:34.559Z,3.67
2018-09-02T14:53:07.544Z,3.40
2018-09-02T14:55:36.629Z,3.30
2018-09-02T14:58:06.894Z,3.00
2018-09-02T15:00:36.574Z,3.17
2018-09-02T15:03:06.224Z,3.60
2018-09-02T15:08:46.135Z,3.50
2018-09-02T15:11:15.299Z,2.90
2018-09-02T15:13:44.995Z,3.27
2018-09-02T15:16:14.365Z,3.33
2018-09-02T15:18:43.997Z,3.47
2018-09-02T15:21:14.003Z,4.00
2018-09-02T15:23:43.509Z,3.57
2018-09-02T15:26:12.947Z,3.53
2018-09-02T15:28:42.237Z,3.73
2018-09-02T15:31:11.596Z,3.90
2018-09-02T15:33:40.748Z,4.10
2018-09-02T15:36:09.944Z,3.73
2018-09-02T15:38:40.009Z,3.20
2018-09-02T15:41:09.019Z,4.20
2018-09-02T15:43:37.997Z,3.70
2018-09-02T15:46:07.230Z,3.83
2018-09-02T15:48:36.330Z,2.90
2018-09-02T15:51:05.459Z,2.77
2018-09-02T15:53:37.923Z,3.33
2018-09-02T15:56:07.400Z,2.80
2018-09-02T15:58:36.466Z,3.03
2018-09-02T16:01:05.902Z,3.20
2018-09-02T16:03:34.914Z,4.13
2018-09-02T16:06:03.916Z,3.70
2018-09-02T16:08:32.831Z,3.73
2018-09-02T16:11:01.998Z,3.57
2018-09-02T16:13:31.003Z,3.80
2018-09-02T16:16:00.830Z,3.33
2018-09-02T16:18:29.797Z,3.53
2018-09-02T16:20:58.855Z,4.10
2018-09-02T16:23:27.800Z,3.67
2018-09-02T16:25:56.987Z,3.40
2018-09-02T16:28:26.026Z,3.50
2018-09-02T16:31:01.087Z,3.73
2018-09-02T16:33:30.042Z,3.60
2018-09-02T16:35:59.144Z,3.23
2018-09-02T16:38:28.063Z,3.37
2018-09-02T16:40:57.256Z,3.10
2018-09-02T16:43:26.180Z,3.30
2018-09-02T16:45:55.145Z,3.10
2018-09-02T16:48:25.243Z,3.40
2018-09-02T16:50:54.196Z,3.30
2018-09-02T16:53:23.157Z,3.27
2018-09-02T16:55:52.278Z,4.83
2018-09-02T16:58:22.388Z,4.97
2018-09-02T17:00:51.377Z,4.90
2018-09-02T17:03:21.234Z,3.63
2018-09-02T17:05:51.130Z,4.73
2018-09-02T17:08:20.563Z,4.20
2018-09-02T17:10:50.052Z,3.83
2018-09-02T17:13:19.245Z,4.17
2018-09-02T17:15:48.210Z,3.70
2018-09-02T17:18:17.278Z,3.80
2018-09-02T17:20:49.279Z,3.73
2018-09-02T17:23:18.577Z,3.47
2018-09-02T17:25:48.207Z,4.43
2018-09-02T17:28:17.620Z,3.30
2018-09-02T17:30:47.063Z,5.10
2018-09-02T17:33:16.906Z,3.60
2018-09-02T17:35:46.467Z,3.60
2018-09-02T17:38:15.823Z,3.47
2018-09-02T17:40:45.119Z,3.57
2018-09-02T17:43:14.566Z,3.53
2018-09-02T17:45:44.707Z,3.40
2018-09-02T17:48:13.817Z,3.70
2018-09-02T17:50:43.008Z,3.73
2018-09-02T17:53:11.996Z,3.60
2018-09-02T17:55:40.947Z,3.77
2018-09-02T17:58:09.924Z,3.67
2018-09-02T18:00:47.581Z,3.80
2018-09-02T18:03:16.818Z,4.23
2018-09-02T18:05:46.111Z,4.00
2018-09-02T18:08:15.506Z,4.00
2018-09-02T18:10:51.480Z,3.77
2018-09-02T18:13:20.431Z,4.00
2018-09-02T18:15:49.445Z,4.30
2018-09-02T18:18:18.404Z,3.67
2018-09-02T18:20:47.871Z,3.50
2018-09-02T18:23:17.235Z,3.57
2018-09-02T18:25:46.867Z,3.90
2018-09-02T18:28:20.782Z,4.10
2018-09-02T18:30:50.186Z,3.63
2018-09-02T18:33:19.238Z,4.10
2018-09-02T18:35:48.303Z,4.33
2018-09-02T18:38:17.391Z,4.07
2018-09-02T18:40:48.220Z,4.13
2018-09-02T18:43:20.608Z,3.73
2018-09-02T18:45:50.721Z,2.90
2018-09-02T18:48:20.059Z,3.43
2018-09-02T18:50:49.386Z,3.87
2018-09-02T18:53:18.578Z,3.53
2018-09-02T18:55:47.731Z,3.63
2018-09-02T18:58:17.124Z,3.20
2018-09-02T19:00:46.309Z,3.17
2018-09-02T19:03:15.724Z,3.77
2018-09-02T19:05:44.984Z,3.90
2018-09-02T19:08:14.754Z,4.67
2018-09-02T19:10:43.978Z,5.17
2018-09-02T19:13:13.095Z,5.10
2018-09-02T19:15:42.137Z,5.40
2018-09-02T19:18:11.617Z,5.60
2018-09-02T19:20:41.208Z,5.47
2018-09-02T19:23:10.586Z,4.80
2018-09-02T19:25:39.804Z,5.00
2018-09-02T19:28:09.172Z,4.43
2018-09-02T19:30:38.526Z,4.63
2018-09-02T19:33:07.829Z,5.83
2018-09-02T19:35:37.153Z,5.20
2018-09-02T19:38:06.380Z,5.50
2018-09-02T19:40:35.754Z,5.43
2018-09-02T19:43:05.807Z,4.50
2018-09-02T19:45:35.943Z,4.90
2018-09-02T19:48:05.257Z,5.13
2018-09-02T19:50:37.249Z,4.70
2018-09-02T19:53:06.577Z,4.47
2018-09-02T19:55:36.820Z,3.67
2018-09-02T19:58:07.760Z,4.10
2018-09-02T20:00:37.176Z,4.20
2018-09-02T20:03:06.544Z,4.70
2018-09-02T20:05:36.693Z,4.90
2018-09-02T20:08:06.128Z,5.03
2018-09-02T20:10:35.622Z,4.80
2018-09-02T20:13:04.926Z,6.00
2018-09-02T20:15:34.231Z,6.47
2018-09-02T20:18:03.407Z,6.33
2018-09-02T20:20:32.789Z,5.87
2018-09-02T20:23:04.925Z,6.30
2018-09-02T20:25:34.174Z,6.10
2018-09-02T20:28:04.199Z,5.20
2018-09-02T20:30:33.267Z,5.20
2018-09-02T20:33:03.138Z,5.00
2018-09-02T20:35:32.215Z,4.80
2018-09-02T20:38:01.219Z,5.40
2018-09-02T20:40:31.720Z,6.10
2018-09-02T20:43:01.916Z,6.47
2018-09-02T20:45:31.256Z,5.77
2018-09-02T20:48:01.512Z,5.40
2018-09-02T20:50:30.679Z,5.43
2018-09-02T20:52:59.892Z,5.83
2018-09-02T20:55:29.128Z,6.30
2018-09-02T20:57:58.399Z,6.37
2018-09-02T21:00:27.747Z,6.07
2018-09-02T21:02:56.989Z,5.63
2018-09-02T21:05:26.255Z,6.87
2018-09-02T21:07:55.351Z,7.43
2018-09-02T21:10:24.449Z,7.37
2018-09-02T21:12:53.779Z,7.70
2018-09-02T21:15:23.536Z,7.30
2018-09-02T21:17:52.615Z,6.40
2018-09-02T21:20:22.917Z,6.40
2018-09-02T21:22:51.984Z,6.03
2018-09-02T21:25:20.963Z,6.47
2018-09-02T21:27:50.101Z,5.93
2018-09-02T21:30:21.560Z,6.47
2018-09-02T21:32:50.717Z,7.10
2018-09-02T21:35:21.858Z,8.23
2018-09-02T21:37:50.890Z,8.53
2018-09-02T21:40:22.083Z,9.13
2018-09-02T21:42:51.203Z,9.93
2018-09-02T21:45:23.157Z,10.10
2018-09-02T21:47:52.443Z,9.13
2018-09-02T21:50:22.923Z,8.53
2018-09-02T21:52:59.495Z,7.37
2018-09-02T21:55:28.700Z,7.27
2018-09-02T21:57:58.113Z,7.77
2018-09-02T22:00:42.813Z,8.67
2018-09-02T22:03:14.175Z,10.20
2018-09-02T22:05:44.507Z,12.83
2018-09-02T22:08:13.880Z,11.93
2018-09-02T22:10:43.260Z,12.33
2018-09-02T22:13:12.652Z,11.80
2018-09-02T22:15:42.841Z,12.30
2018-09-02T22:18:12.268Z,11.97
2018-09-02T22:20:43.098Z,12.40
2018-09-02T22:23:12.633Z,10.27
2018-09-02T22:25:42.289Z,9.73
2018-09-02T22:28:11.820Z,9.27
2018-09-02T22:30:41.502Z,9.43
2018-09-02T22:33:10.953Z,9.70
2018-09-02T22:35:40.339Z,11.47
2018-09-02T22:38:09.690Z,11.27
2018-09-02T22:40:38.942Z,11.13
2018-09-02T22:43:08.427Z,10.67
2018-09-02T22:45:44.303Z,11.80
2018-09-02T22:48:14.222Z,12.67
2018-09-02T23:00:52.229Z,15.33
2018-09-02T23:03:21.504Z,18.03
2018-09-02T23:05:50.701Z,18.10
2018-09-02T23:08:19.900Z,15.20
2018-09-02T23:10:49.157Z,14.60
2018-09-02T23:13:18.292Z,10.13
2018-09-02T23:15:47.530Z,14.77
2018-09-02T23:18:16.799Z,17.37
2018-09-02T23:20:46.618Z,17.00
2018-09-02T23:23:15.991Z,15.67
2018-09-02T23:25:45.480Z,17.00
2018-09-02T23:28:14.685Z,21.17
2018-09-02T23:30:49.197Z,26.13
2018-09-02T23:33:18.498Z,21.63
2018-09-02T23:35:47.784Z,18.87
2018-09-02T23:38:17.000Z,19.50
2018-09-02T23:40:46.275Z,19.43
2018-09-02T23:43:15.599Z,17.67
2018-09-02T23:45:44.972Z,18.13
2018-09-02T23:48:14.269Z,37.30
2018-09-02T23:50:44.615Z,22.70
2018-09-02T23:53:13.946Z,21.07
2018-09-02T23:55:43.240Z,17.23
2018-09-02T23:58:12.590Z,15.80
